createdAt,value
2022-11-25T00:00:39.026Z,12.50
2022-11-25T00:01:41.589Z,13.20
2022-11-25T00:02:44.988Z,13.90
2022-11-25T00:03:48.290Z,14.50
2022-11-25T00:04:53.244Z,14.30
2022-11-25T00:05:56.070Z,11.80
2022-11-25T00:06:59.033Z,12.30
2022-11-25T00:08:01.050Z,11.70
2022-11-25T00:09:06.114Z,12.40
2022-11-25T00:10:09.844Z,13.90
2022-11-25T00:11:12.280Z,11.40
2022-11-25T00:12:15.537Z,13.40
2022-11-25T00:13:18.323Z,11.20
2022-11-25T00:14:21.749Z,12.30
2022-11-25T00:15:23.910Z,12.70
2022-11-25T00:16:26.191Z,12.40
2022-11-25T00:17:48.116Z,11.80
2022-11-25T00:18:51.349Z,11.70
2022-11-25T00:19:53.727Z,13.00
2022-11-25T00:20:56.999Z,12.50
2022-11-25T00:21:59.710Z,10.00
2022-11-25T00:23:02.431Z,12.10
2022-11-25T00:24:06.652Z,13.60
2022-11-25T00:25:08.902Z,10.50
2022-11-25T00:26:12.693Z,13.00
2022-11-25T00:27:14.907Z,13.20
2022-11-25T00:28:17.503Z,13.20
2022-11-25T00:29:19.493Z,12.50
2022-11-25T00:30:22.124Z,10.80
2022-11-25T00:31:26.492Z,12.50
2022-11-25T00:32:29.452Z,11.90
2022-11-25T00:33:33.683Z,12.00
2022-11-25T00:34:36.908Z,12.70
2022-11-25T00:35:39.358Z,12.90
2022-11-25T00:36:41.994Z,11.70
2022-11-25T00:37:44.186Z,13.00
2022-11-25T00:38:46.673Z,11.70
2022-11-25T00:39:49.839Z,12.80
2022-11-25T00:40:52.544Z,10.36
2022-11-25T00:41:54.716Z,11.20
2022-11-25T00:42:57.126Z,12.00
2022-11-25T00:43:59.125Z,11.40
2022-11-25T00:45:01.746Z,13.60
2022-11-25T00:46:04.732Z,11.90
2022-11-25T00:47:15.631Z,12.20
2022-11-25T00:48:17.760Z,12.80
2022-11-25T00:49:19.944Z,11.90
2022-11-25T00:50:23.236Z,11.40
2022-11-25T00:51:25.392Z,11.20
2022-11-25T00:52:27.522Z,10.70
2022-11-25T00:53:31.741Z,11.90
2022-11-25T00:54:35.152Z,12.30
2022-11-25T00:55:37.554Z,11.40
2022-11-25T00:56:39.615Z,11.70
2022-11-25T00:57:42.796Z,11.40
2022-11-25T00:58:44.927Z,13.30
2022-11-25T00:59:47.368Z,10.70
2022-11-25T01:00:49.577Z,10.90
2022-11-25T01:01:51.958Z,10.80
2022-11-25T01:02:54.735Z,11.50
2022-11-25T01:03:57.526Z,7.00
2022-11-25T01:04:59.615Z,11.30
2022-11-25T01:06:03.666Z,10.80
2022-11-25T01:07:05.911Z,12.20
2022-11-25T01:08:09.743Z,11.40
2022-11-25T01:09:13.545Z,11.60
2022-11-25T01:10:15.780Z,12.00
2022-11-25T01:11:20.652Z,11.40
2022-11-25T01:12:23.286Z,11.60
2022-11-25T01:13:26.804Z,11.30
2022-11-25T01:14:31.385Z,11.60
2022-11-25T01:15:38.598Z,10.50
2022-11-25T01:16:41.046Z,10.90
2022-11-25T01:17:43.645Z,13.30
2022-11-25T01:18:47.781Z,11.40
2022-11-25T01:19:50.165Z,8.70
2022-11-25T01:20:55.477Z,11.60
2022-11-25T01:21:59.496Z,11.40
2022-11-25T01:23:02.151Z,11.80
2022-11-25T01:24:05.433Z,11.70
2022-11-25T01:25:08.898Z,11.20
2022-11-25T01:26:13.838Z,11.70
2022-11-25T01:27:16.106Z,11.20
2022-11-25T01:28:18.200Z,12.50
2022-11-25T01:29:21.192Z,11.18
2022-11-25T01:30:23.617Z,11.70
2022-11-25T01:31:27.270Z,10.40
2022-11-25T01:32:29.590Z,11.20
2022-11-25T01:33:31.898Z,11.30
2022-11-25T01:34:34.732Z,10.10
2022-11-25T01:35:37.802Z,10.20
2022-11-25T01:36:42.357Z,10.90
2022-11-25T01:37:45.412Z,10.60
2022-11-25T01:40:06.071Z,9.90
2022-11-25T01:41:09.930Z,11.50
2022-11-25T01:42:13.496Z,10.70
2022-11-25T01:43:16.291Z,10.55
2022-11-25T01:44:21.658Z,9.80
2022-11-25T01:46:57.328Z,7.10
2022-11-25T01:48:03.023Z,10.50
2022-11-25T01:49:06.778Z,11.50
2022-11-25T01:50:09.612Z,10.80
2022-11-25T06:55:22.186Z,19.70
2022-11-25T06:56:26.358Z,18.10
2022-11-25T06:57:29.160Z,20.10
2022-11-25T06:58:36.134Z,18.36
2022-11-25T06:59:36.325Z,19.90
2022-11-25T07:00:38.879Z,17.50
2022-11-25T07:01:41.517Z,18.70
2022-11-25T07:02:48.229Z,16.36
2022-11-25T07:03:49.049Z,12.80
2022-11-25T07:04:51.181Z,17.50
2022-11-25T07:05:56.004Z,19.30
2022-11-25T07:06:58.575Z,19.10
2022-11-25T07:08:01.209Z,18.60
2022-11-25T07:09:03.943Z,18.80
2022-11-25T07:10:08.692Z,19.00
2022-11-25T07:11:21.907Z,18.50
2022-11-25T07:12:24.324Z,18.30
2022-11-25T07:13:28.140Z,19.20
2022-11-25T07:14:30.444Z,19.91
2022-11-25T07:15:33.995Z,18.80
2022-11-25T07:16:37.155Z,18.00
2022-11-25T07:17:39.288Z,19.20
2022-11-25T07:18:42.316Z,19.50
2022-11-25T07:19:44.823Z,18.60
2022-11-25T07:20:46.932Z,15.20
2022-11-25T07:21:49.028Z,18.70
2022-11-25T07:22:51.744Z,19.10
2022-11-25T07:23:53.870Z,18.80
2022-11-25T07:24:55.997Z,19.30
2022-11-25T07:26:06.381Z,19.40
2022-11-25T07:27:09.660Z,18.30
2022-11-25T07:28:11.894Z,18.80
2022-11-25T07:29:54.167Z,16.50
2022-11-25T07:31:09.841Z,17.10
2022-11-25T07:32:42.869Z,17.10
2022-11-25T07:33:45.662Z,17.90
2022-11-25T07:34:50.290Z,18.18
2022-11-25T07:35:52.576Z,18.30
2022-11-25T07:36:54.936Z,9.30
2022-11-25T07:37:57.665Z,18.50
2022-11-25T07:39:00.940Z,17.18
2022-11-25T07:40:04.954Z,18.80
2022-11-25T07:41:08.701Z,18.10
2022-11-25T07:42:10.930Z,18.80
2022-11-25T07:43:13.080Z,11.30
2022-11-25T07:44:15.467Z,17.50
2022-11-25T07:45:20.379Z,18.60
2022-11-25T07:46:27.723Z,16.30
2022-11-25T07:47:33.605Z,18.20
2022-11-25T07:48:35.732Z,16.30
2022-11-25T07:49:38.322Z,17.60
2022-11-25T07:50:40.902Z,19.27
2022-11-25T07:51:54.599Z,17.90
2022-11-25T07:52:57.088Z,13.70
2022-11-25T07:53:59.870Z,16.40
2022-11-25T07:55:02.926Z,16.82
2022-11-25T07:56:06.061Z,14.50
2022-11-25T07:57:08.211Z,16.50
2022-11-25T07:58:11.350Z,15.10
2022-11-25T07:59:15.394Z,16.20
2022-11-25T08:00:18.568Z,17.10
2022-11-25T08:01:20.941Z,17.00
2022-11-25T08:02:23.277Z,16.40
2022-11-25T08:03:25.714Z,17.60
2022-11-25T08:04:29.101Z,17.00
2022-11-25T08:05:33.179Z,18.90
2022-11-25T08:06:39.739Z,17.30
2022-11-25T08:07:42.008Z,18.70
2022-11-25T08:08:44.243Z,15.20
2022-11-25T08:09:46.329Z,16.80
2022-11-25T08:10:48.536Z,17.30
2022-11-25T08:11:54.728Z,18.70
2022-11-25T08:12:57.055Z,15.90
2022-11-25T08:13:59.688Z,16.10
2022-11-25T08:15:02.004Z,16.30
2022-11-25T08:16:05.026Z,15.50
2022-11-25T08:17:07.397Z,15.91
2022-11-25T08:18:09.569Z,14.40
2022-11-25T08:19:14.217Z,16.70
2022-11-25T08:21:29.553Z,15.40
2022-11-25T08:22:31.569Z,14.70
2022-11-25T08:23:33.786Z,17.10
2022-11-25T08:24:35.889Z,14.70
2022-11-25T08:25:43.034Z,16.30
2022-11-25T08:26:45.667Z,14.50
2022-11-25T08:27:48.845Z,17.00
2022-11-25T08:28:52.077Z,15.90
2022-11-25T08:29:54.792Z,15.00
2022-11-25T08:31:05.798Z,15.27
2022-11-25T08:32:11.960Z,16.60
2022-11-25T08:33:13.068Z,16.50
2022-11-25T08:34:19.766Z,11.40
2022-11-25T08:35:24.094Z,15.50
2022-11-25T08:36:28.173Z,16.50
2022-11-25T08:37:30.909Z,14.20
2022-11-25T08:38:33.383Z,15.91
2022-11-25T08:39:51.844Z,15.50
2022-11-25T08:40:42.910Z,14.90
2022-11-25T08:41:46.555Z,14.40
2022-11-25T08:42:49.422Z,15.20
2022-11-25T08:43:52.418Z,14.64
2022-11-25T08:44:55.105Z,15.18
2022-11-25T08:45:57.202Z,15.80
2022-11-25T08:46:59.532Z,15.10
2022-11-25T08:48:01.767Z,15.60
2022-11-25T08:49:04.738Z,16.00
2022-11-25T08:50:09.754Z,13.60
2022-11-25T08:51:13.979Z,15.50
2022-11-25T08:52:16.573Z,16.80
2022-11-25T08:53:20.549Z,14.82
2022-11-25T08:54:22.783Z,15.00
2022-11-25T08:55:25.298Z,16.30
2022-11-25T08:56:27.490Z,14.80
2022-11-25T08:57:30.537Z,15.80
2022-11-25T08:58:33.739Z,15.10
2022-11-25T08:59:36.808Z,16.80
2022-11-25T09:00:40.503Z,15.30
2022-11-25T09:01:43.216Z,15.00
2022-11-25T09:02:46.544Z,14.60
2022-11-25T09:03:51.132Z,16.20
2022-11-25T09:04:53.210Z,16.20
2022-11-25T09:05:55.859Z,15.20
2022-11-25T09:06:58.201Z,15.09
2022-11-25T09:08:00.573Z,15.10
2022-11-25T09:09:03.611Z,15.45
2022-11-25T09:10:07.831Z,11.10
2022-11-25T09:11:10.739Z,13.00
2022-11-25T09:12:13.485Z,15.90
2022-11-25T09:13:16.160Z,15.10
2022-11-25T09:14:18.709Z,17.00
2022-11-25T09:15:20.767Z,16.20
2022-11-25T09:16:23.074Z,17.20
2022-11-25T09:17:25.312Z,18.20
2022-11-25T09:18:27.340Z,17.11
2022-11-25T09:19:29.364Z,19.00
2022-11-25T09:20:32.046Z,18.00
2022-11-25T09:21:34.147Z,17.90
2022-11-25T09:22:36.241Z,17.00
2022-11-25T09:23:39.636Z,15.00
2022-11-25T09:24:41.883Z,18.20
2022-11-25T09:25:55.418Z,19.60
2022-11-25T09:26:57.759Z,17.10
2022-11-25T09:27:59.851Z,18.00
2022-11-25T09:29:02.349Z,18.10
2022-11-25T09:30:06.255Z,17.10
2022-11-25T09:31:08.860Z,16.70
2022-11-25T09:32:11.155Z,15.45
2022-11-25T09:33:13.723Z,16.70
2022-11-25T09:34:16.429Z,16.64
2022-11-25T09:35:18.827Z,15.60
2022-11-25T09:36:21.779Z,16.70
2022-11-25T09:37:24.898Z,18.36
2022-11-25T09:38:27.614Z,13.64
2022-11-25T09:39:30.204Z,14.30
2022-11-25T09:40:36.186Z,17.00
2022-11-25T09:41:47.878Z,17.00
2022-11-25T09:42:58.772Z,16.20
2022-11-25T09:44:05.211Z,18.30
2022-11-25T09:45:26.196Z,14.50
2022-11-25T09:46:38.373Z,15.60
2022-11-25T09:48:16.872Z,14.60
2022-11-25T09:49:31.703Z,17.20
2022-11-25T09:51:06.780Z,8.20
2022-11-25T09:52:29.531Z,16.60
2022-11-25T09:53:44.365Z,17.60
2022-11-25T09:54:56.886Z,11.00
2022-11-25T09:56:02.327Z,18.40
2022-11-25T09:57:25.988Z,14.80
2022-11-25T09:58:40.606Z,14.80
2022-11-25T10:00:07.834Z,14.80
2022-11-25T10:01:20.162Z,15.90
2022-11-25T10:03:42.926Z,16.60
2022-11-25T10:04:54.998Z,17.80
2022-11-25T10:07:22.727Z,15.60
2022-11-25T10:08:28.071Z,16.00
2022-11-25T10:09:34.441Z,1.30
2022-11-25T10:10:45.996Z,15.80
2022-11-25T10:11:54.026Z,14.70
2022-11-25T10:12:57.104Z,15.70
2022-11-25T14:15:41.681Z,14.40
2022-11-25T14:16:59.407Z,13.90
2022-11-25T14:19:03.257Z,11.80
2022-11-25T14:19:57.883Z,15.20
2022-11-25T14:22:25.105Z,13.00
2022-11-25T14:23:43.802Z,13.90
2022-11-25T14:24:47.859Z,13.80
2022-11-25T14:25:52.722Z,13.10
2022-11-25T14:26:55.829Z,12.70
2022-11-25T14:28:09.888Z,13.10
2022-11-25T14:30:30.000Z,11.10
2022-11-25T14:31:35.463Z,13.60
2022-11-25T14:32:42.025Z,12.50
2022-11-25T14:35:12.592Z,11.00
2022-11-25T14:37:39.300Z,12.30
2022-11-25T14:40:09.429Z,12.40
2022-11-25T14:41:20.875Z,12.30
2022-11-25T14:42:24.285Z,14.00
2022-11-25T14:43:26.662Z,11.40
2022-11-25T14:44:46.904Z,13.00
2022-11-25T14:47:34.594Z,14.80
2022-11-25T14:48:35.229Z,11.60
2022-11-25T14:51:05.755Z,13.90
2022-11-25T14:52:08.101Z,13.70
2022-11-25T14:53:10.748Z,13.70
2022-11-25T14:54:16.153Z,14.00
2022-11-25T14:55:29.952Z,13.70
2022-11-25T14:56:33.986Z,14.80
2022-11-25T14:57:40.476Z,8.20
2022-11-25T14:58:47.932Z,13.20
2022-11-25T14:59:51.148Z,13.60
2022-11-25T15:01:01.846Z,12.00
2022-11-25T15:02:04.137Z,13.90
2022-11-25T15:03:06.288Z,13.50
2022-11-25T15:04:23.318Z,12.50
2022-11-25T15:06:57.692Z,13.10
2022-11-25T15:08:02.501Z,13.60
2022-11-25T15:09:20.197Z,12.30
2022-11-25T15:10:41.527Z,13.10
2022-11-25T15:11:43.734Z,10.10
2022-11-25T15:12:50.058Z,10.80
2022-11-25T15:14:04.053Z,11.80
2022-11-25T15:15:10.025Z,6.20
2022-11-25T15:16:17.348Z,10.90
2022-11-25T15:17:32.477Z,10.10
2022-11-25T15:18:34.742Z,10.50
2022-11-25T15:19:37.818Z,12.20
2022-11-25T15:20:40.260Z,11.00
2022-11-25T15:22:14.571Z,10.50
2022-11-25T15:24:00.912Z,11.10
2022-11-25T15:25:08.705Z,13.20
2022-11-25T15:27:34.796Z,12.00
2022-11-25T15:28:37.560Z,9.00
2022-11-25T15:31:18.307Z,12.20
2022-11-25T15:32:28.213Z,14.10
2022-11-25T15:33:30.828Z,11.10
2022-11-25T15:34:34.625Z,13.30
2022-11-25T15:35:37.405Z,13.00
2022-11-25T15:36:40.692Z,12.10
2022-11-25T15:37:43.795Z,14.00
2022-11-25T15:38:47.142Z,12.10
2022-11-25T15:39:50.107Z,11.50
2022-11-25T15:40:55.207Z,11.70
2022-11-25T15:42:03.853Z,13.00
2022-11-25T15:45:48.603Z,10.10
2022-11-25T15:48:06.227Z,11.60
2022-11-25T15:49:12.491Z,11.40
2022-11-25T15:50:25.405Z,11.10
2022-11-25T15:51:54.808Z,10.80
2022-11-25T15:52:58.386Z,11.60
2022-11-25T15:54:23.320Z,12.20
2022-11-25T15:55:32.143Z,11.00
2022-11-25T15:56:37.980Z,9.80
2022-11-25T15:57:40.145Z,10.70
2022-11-25T15:58:43.591Z,12.00
2022-11-25T15:59:47.914Z,11.90
2022-11-25T16:02:44.362Z,10.90
2022-11-25T16:03:47.106Z,10.80
2022-11-25T16:04:49.970Z,11.50
2022-11-25T16:05:53.306Z,11.90
2022-11-25T16:06:56.744Z,13.00
2022-11-25T16:08:20.384Z,11.70
2022-11-25T16:09:24.050Z,12.70
2022-11-25T16:10:33.258Z,11.80
2022-11-25T16:11:39.097Z,11.30
2022-11-25T16:12:41.422Z,10.60
2022-11-25T16:13:43.644Z,12.80
2022-11-25T16:14:46.051Z,12.80
2022-11-25T16:15:58.117Z,14.10
2022-11-25T16:17:03.514Z,14.70
2022-11-25T16:18:32.287Z,9.60
2022-11-25T16:19:15.994Z,16.40
2022-11-25T16:20:18.871Z,16.40
2022-11-25T16:22:37.971Z,10.40
2022-11-25T16:23:43.347Z,12.56
2022-11-25T16:24:57.300Z,13.30
2022-11-25T16:26:01.007Z,12.80
2022-11-25T16:27:22.720Z,13.20
2022-11-25T16:28:27.374Z,14.30
2022-11-25T16:29:51.486Z,12.90
2022-11-25T16:30:57.845Z,14.50
2022-11-25T16:31:59.435Z,14.10
2022-11-25T16:33:01.731Z,14.30
2022-11-25T16:34:19.416Z,14.70
2022-11-25T16:35:22.896Z,12.70
2022-11-25T16:36:26.402Z,13.70
2022-11-25T16:37:29.010Z,11.00
2022-11-25T16:38:31.651Z,13.90
2022-11-25T16:39:33.763Z,13.10
2022-11-25T16:40:36.657Z,14.10
2022-11-25T16:41:39.686Z,9.27
2022-11-25T16:42:46.511Z,11.60
2022-11-25T16:43:50.652Z,13.70
2022-11-25T16:44:53.121Z,14.60
2022-11-25T16:45:55.259Z,13.00
2022-11-25T16:46:58.719Z,14.70
2022-11-25T16:48:00.867Z,13.60
2022-11-25T16:49:16.767Z,16.20
2022-11-25T16:50:20.224Z,13.50
2022-11-25T16:51:23.361Z,11.73
2022-11-25T16:52:25.835Z,14.80
2022-11-25T16:53:28.268Z,12.82
2022-11-25T16:54:31.416Z,14.80
2022-11-25T16:55:33.540Z,17.00
2022-11-25T16:56:37.019Z,14.60
2022-11-25T16:57:40.424Z,14.50
2022-11-25T16:58:42.977Z,12.80
2022-11-25T16:59:46.291Z,14.70
2022-11-25T17:00:54.491Z,16.60
2022-11-25T17:01:56.850Z,15.20
2022-11-25T17:03:00.304Z,10.20
2022-11-25T17:04:03.930Z,12.90
2022-11-25T17:05:18.961Z,14.90
2022-11-25T17:06:23.442Z,16.30
2022-11-25T17:07:33.075Z,13.80
2022-11-25T17:08:32.717Z,15.50
2022-11-25T17:09:34.973Z,6.55
2022-11-25T17:10:37.364Z,16.20
2022-11-25T17:13:02.571Z,13.60
2022-11-25T17:14:08.694Z,11.10
2022-11-25T17:15:17.662Z,16.20
2022-11-25T17:16:25.456Z,14.00
2022-11-25T17:17:27.912Z,15.10
2022-11-25T17:18:30.115Z,14.40
2022-11-25T17:19:34.431Z,15.00
2022-11-25T17:20:36.937Z,16.10
2022-11-25T17:21:39.598Z,11.70
2022-11-25T17:22:43.752Z,16.00
2022-11-25T17:23:50.129Z,14.60
2022-11-25T17:24:51.446Z,14.80
2022-11-25T17:25:53.527Z,13.80
2022-11-25T17:27:02.809Z,16.90
2022-11-25T17:28:05.879Z,17.60
2022-11-25T17:29:14.723Z,13.50
2022-11-25T17:30:20.164Z,15.20
2022-11-25T17:31:25.232Z,15.90
2022-11-25T17:32:27.470Z,15.60
2022-11-25T17:33:33.534Z,14.90
2022-11-25T17:34:39.477Z,15.50
2022-11-25T17:35:39.711Z,15.80
2022-11-25T17:36:43.238Z,17.00
2022-11-25T17:37:45.894Z,15.80
2022-11-25T17:38:47.981Z,15.00
2022-11-25T17:39:51.403Z,15.50
2022-11-25T17:40:53.983Z,19.20
2022-11-25T17:41:56.050Z,15.80
2022-11-25T17:42:59.331Z,17.00
2022-11-25T17:44:02.940Z,19.20
2022-11-25T17:45:15.728Z,19.00
2022-11-25T17:46:19.210Z,17.60
2022-11-25T17:47:22.678Z,17.70
2022-11-25T17:48:24.978Z,19.20
2022-11-25T17:49:28.638Z,14.60
2022-11-25T17:50:31.032Z,18.09
2022-11-25T17:51:33.927Z,18.50
2022-11-25T17:52:36.761Z,17.90
2022-11-25T17:53:39.458Z,19.80
2022-11-25T17:54:41.546Z,16.90
2022-11-25T17:55:44.609Z,16.89
2022-11-25T17:56:52.042Z,19.60
2022-11-25T17:57:51.774Z,19.70
2022-11-25T17:58:54.745Z,20.09
2022-11-25T17:59:58.155Z,21.40
2022-11-25T18:01:00.817Z,18.20
2022-11-25T18:03:21.051Z,12.90
2022-11-25T18:04:28.048Z,19.50
2022-11-25T18:05:30.743Z,19.60
2022-11-25T18:06:33.140Z,16.64
2022-11-25T18:07:37.459Z,18.10
2022-11-25T18:08:40.678Z,16.80
2022-11-25T18:09:43.268Z,14.60
2022-11-25T18:10:46.026Z,18.36
2022-11-25T18:11:50.450Z,19.00
2022-11-25T18:12:53.782Z,9.80
2022-11-25T18:13:55.857Z,18.20
2022-11-25T18:14:57.989Z,18.30
2022-11-25T18:16:00.994Z,13.91
2022-11-25T18:17:05.272Z,15.70
2022-11-25T18:18:18.027Z,17.50
2022-11-25T18:19:20.419Z,16.90
2022-11-25T18:20:24.793Z,18.10
2022-11-25T18:21:28.791Z,15.60
2022-11-25T18:22:30.954Z,16.30
2022-11-25T18:23:35.043Z,16.20
2022-11-25T18:24:37.715Z,16.00
2022-11-25T18:25:43.213Z,19.70
2022-11-25T18:26:48.189Z,17.90
2022-11-25T18:27:51.655Z,17.40
2022-11-25T18:28:54.322Z,18.70
2022-11-25T18:29:57.117Z,17.20
2022-11-25T18:31:02.064Z,17.90
2022-11-25T18:32:04.864Z,18.10
2022-11-25T18:34:25.818Z,16.70
2022-11-25T18:35:35.812Z,16.00
2022-11-25T18:36:34.560Z,16.70
2022-11-25T18:37:38.014Z,17.00
2022-11-25T18:38:40.196Z,17.50
2022-11-25T18:39:42.276Z,19.00
2022-11-25T18:40:51.846Z,14.40
2022-11-25T18:41:49.684Z,17.40
2022-11-25T18:42:53.903Z,18.40
2022-11-25T18:43:58.824Z,18.80
2022-11-25T18:45:02.345Z,16.70
2022-11-25T18:46:05.054Z,17.60
2022-11-25T18:47:12.657Z,15.82
2022-11-25T18:48:17.679Z,16.50
2022-11-25T18:49:20.116Z,18.10
2022-11-25T18:50:26.208Z,17.90
2022-11-25T18:51:29.334Z,17.50
2022-11-25T18:52:31.506Z,17.50
2022-11-25T18:53:34.656Z,19.10
2022-11-25T22:51:10.472Z,20.70
2022-11-25T22:52:27.029Z,19.70
2022-11-25T22:53:29.220Z,20.10
2022-11-25T22:54:32.395Z,16.50
2022-11-25T22:55:34.559Z,14.64
2022-11-25T22:56:36.772Z,13.60
2022-11-25T22:57:39.701Z,14.09
2022-11-25T22:58:41.775Z,13.20
2022-11-25T22:59:44.389Z,14.10
2022-11-25T23:00:46.593Z,12.70
2022-11-25T23:01:48.719Z,13.30
2022-11-25T23:02:51.611Z,13.00
2022-11-25T23:03:54.483Z,12.40
2022-11-25T23:04:56.994Z,8.20
2022-11-25T23:06:01.321Z,12.80
2022-11-25T23:07:06.869Z,11.00
2022-11-25T23:08:15.803Z,10.10
2022-11-25T23:09:19.144Z,13.20
2022-11-25T23:10:23.406Z,12.70
2022-11-25T23:11:25.516Z,14.50
2022-11-25T23:12:27.608Z,11.30
2022-11-25T23:13:32.597Z,10.80
2022-11-25T23:14:35.751Z,12.20
2022-11-25T23:15:39.520Z,13.50
2022-11-25T23:16:42.727Z,12.40
2022-11-25T23:19:03.408Z,10.90
2022-11-25T23:20:12.282Z,10.90
2022-11-25T23:21:19.133Z,10.20
2022-11-25T23:22:22.393Z,10.80
2022-11-25T23:23:25.955Z,11.00
2022-11-25T23:24:28.140Z,11.90
2022-11-25T23:25:31.180Z,11.70
2022-11-25T23:26:35.171Z,12.50
2022-11-25T23:27:37.591Z,12.90
2022-11-25T23:28:40.492Z,12.30
2022-11-25T23:29:42.784Z,10.60
2022-11-25T23:30:56.590Z,10.70
2022-11-25T23:32:00.842Z,11.30
2022-11-25T23:33:04.795Z,12.30
2022-11-25T23:34:09.461Z,11.20
2022-11-25T23:35:23.437Z,12.50
2022-11-25T23:36:32.511Z,11.20
2022-11-25T23:37:34.801Z,11.10
2022-11-25T23:39:53.887Z,11.00
2022-11-25T23:40:57.401Z,8.30
2022-11-25T23:41:59.695Z,9.90
2022-11-25T23:43:02.275Z,11.20
2022-11-25T23:45:28.028Z,9.80
2022-11-25T23:46:32.397Z,12.20
2022-11-25T23:47:34.548Z,12.20
2022-11-25T23:48:36.640Z,10.20
2022-11-25T23:49:40.171Z,10.50
2022-11-25T23:50:42.437Z,10.70
2022-11-25T23:51:46.035Z,10.90
2022-11-25T23:52:49.775Z,9.30
2022-11-25T23:53:51.929Z,10.10
2022-11-25T23:54:55.115Z,11.00
2022-11-25T23:55:57.649Z,10.90
2022-11-25T23:56:59.719Z,11.40
2022-11-25T23:58:03.298Z,12.20
2022-11-25T23:59:14.629Z,11.80
